Time;durP1;ratioP1;P1;durP2;ratioP2;P2;SDS_P1;SDS_P2;PMS_P1;PMS_P2;Temp;Humidity;BMP_temperature;BMP_pressure;BME280_temperature;BME280_humidity;BME280_pressure;Samples;Min_cycle;Max_cycle;Signal;HPM_P1;HPM_P2
2021/08/13 00:01:10;;;;;;;1999.90;999.90;;;;;;;20.33;66.77;101524.50;15813332;28;20097;-66
2021/08/13 00:08:43;;;;;;;1999.90;999.90;;;;;;;20.38;66.71;101517.69;15776916;28;20040;-66
2021/08/13 00:16:16;;;;;;;1999.90;999.90;;;;;;;20.30;66.86;101518.75;15812135;28;20393;-67
2021/08/13 00:23:48;;;;;;;1999.90;999.90;;;;;;;20.10;68.36;101518.84;15811294;28;20044;-66
2021/08/13 00:31:22;;;;;;;1999.90;999.90;;;;;;;20.31;67.39;101528.88;15771176;28;20079;-66
2021/08/13 00:38:54;;;;;;;1999.90;999.90;;;;;;;20.36;67.34;101525.75;15752265;28;20055;-67
2021/08/13 00:46:28;;;;;;;1999.90;999.90;;;;;;;20.31;67.23;101532.53;15736078;28;20063;-66
2021/08/13 00:54:14;;;;;;;1999.90;999.90;;;;;;;20.36;67.64;101520.06;15733212;28;20562;-67
2021/08/13 01:01:56;;;;;;;1999.90;999.90;;;;;;;20.45;67.19;101529.97;15730556;28;20044;-66
2021/08/13 01:09:28;;;;;;;1999.90;999.90;;;;;;;20.44;67.60;101527.53;15730231;28;20535;-66
2021/08/13 01:17:07;;;;;;;1999.90;999.90;;;;;;;20.50;68.03;101528.00;15711811;28;20131;-65
2021/08/13 01:24:46;;;;;;;1999.90;999.90;;;;;;;20.50;67.19;101508.16;15749593;28;20094;-65
2021/08/13 01:32:41;;;;;;;1999.90;999.90;;;;;;;20.52;67.16;101509.41;15764228;28;20044;-66
2021/08/13 01:40:17;;;;;;;1999.90;999.90;;;;;;;20.41;67.17;101508.41;15792577;28;20054;-66
2021/08/13 01:47:53;;;;;;;1999.90;999.90;;;;;;;20.38;65.93;101498.66;15771645;28;20420;-66
2021/08/13 01:55:28;;;;;;;1999.90;999.90;;;;;;;20.35;66.98;101493.75;15789989;28;20052;-66
2021/08/13 02:03:03;;;;;;;1999.90;999.90;;;;;;;20.24;67.93;101500.44;15786791;28;20039;-66
2021/08/13 02:10:39;;;;;;;1999.90;999.90;;;;;;;20.23;67.92;101501.66;15785767;28;20516;-66
2021/08/13 02:18:21;;;;;;;1999.90;999.90;;;;;;;20.15;68.86;101500.72;15770110;28;20059;-66
2021/08/13 02:25:53;;;;;;;1999.90;999.90;;;;;;;19.92;69.19;101511.25;15787541;28;20063;-65
2021/08/13 02:33:29;;;;;;;1999.90;999.90;;;;;;;19.85;69.29;101500.59;15730801;28;20123;-67
2021/08/13 02:41:05;;;;;;;1999.90;999.90;;;;;;;19.80;69.74;101504.59;15708954;28;20052;-67
2021/08/13 02:48:41;;;;;;;1999.90;999.90;;;;;;;19.81;69.62;101508.22;15708293;28;20056;-67
2021/08/13 02:56:19;;;;;;;1999.90;999.90;;;;;;;19.76;69.85;101509.34;15725637;28;20696;-65
2021/08/13 03:03:55;;;;;;;1999.90;999.90;;;;;;;19.86;70.03;101508.72;15723018;28;20060;-67
2021/08/13 03:11:30;;;;;;;1999.90;999.90;;;;;;;19.75;70.43;101513.38;15721934;28;20531;-65
2021/08/13 03:19:05;;;;;;;1999.90;999.90;;;;;;;19.85;70.02;101514.75;15721625;28;20464;-66
2021/08/13 03:26:39;;;;;;;1999.90;999.90;;;;;;;19.91;69.82;101515.28;15715534;28;20098;-67
2021/08/13 03:34:23;;;;;;;1999.90;999.90;;;;;;;19.93;69.66;101505.19;15778074;28;20043;-66
2021/08/13 03:41:56;;;;;;;1999.90;999.90;;;;;;;19.90;69.79;101500.28;15811686;28;20044;-67
2021/08/13 03:49:31;;;;;;;1999.90;999.90;;;;;;;19.93;69.57;101518.53;15737966;28;20043;-67
2021/08/13 03:57:04;;;;;;;1999.90;999.90;;;;;;;20.02;69.75;101510.63;15729399;28;20044;-66
2021/08/13 04:04:38;;;;;;;1999.90;999.90;;;;;;;19.86;67.09;101507.91;15747043;28;20097;-66
2021/08/13 04:12:11;;;;;;;1999.90;999.90;;;;;;;20.01;66.64;101515.47;15728915;28;20049;-65
2021/08/13 04:19:45;;;;;;;1999.90;999.90;;;;;;;20.28;67.76;101512.66;15727696;28;20044;-67
2021/08/13 04:27:18;;;;;;;1999.90;999.90;;;;;;;20.07;67.11;101508.25;15718589;28;20083;-67
2021/08/13 04:34:51;;;;;;;1999.90;999.90;;;;;;;20.27;70.16;101511.84;15789380;28;20488;-67
2021/08/13 04:42:26;;;;;;;1999.90;999.90;;;;;;;20.37;68.94;101510.38;15789344;28;20040;-66
2021/08/13 04:50:02;;;;;;;1999.90;999.90;;;;;;;20.11;66.65;101508.31;15789152;28;20063;-67
2021/08/13 04:57:36;;;;;;;1999.90;999.90;;;;;;;20.36;66.16;101514.41;15788265;28;20484;-67
2021/08/13 05:05:12;;;;;;;1999.90;999.90;;;;;;;20.60;65.98;101513.19;15772038;28;20048;-66
2021/08/13 05:12:50;;;;;;;1999.90;999.90;;;;;;;20.63;67.82;101506.72;15812460;28;20040;-67
2021/08/13 05:20:27;;;;;;;1999.90;999.90;;;;;;;20.32;67.36;101505.00;15787673;28;20082;-66
2021/08/13 05:28:07;;;;;;;1999.90;999.90;;;;;;;20.63;67.63;101524.56;15772341;28;20097;-67
2021/08/13 05:35:44;;;;;;;1999.90;999.90;;;;;;;20.58;68.92;101532.59;15741333;28;20149;-65
2021/08/13 05:43:17;;;;;;;1999.90;999.90;;;;;;;20.47;68.05;101526.75;15723360;28;20045;-61
2021/08/13 05:50:51;;;;;;;1999.90;999.90;;;;;;;21.29;65.91;101519.41;15722209;28;20036;-62
2021/08/13 05:58:29;;;;;;;1999.90;999.90;;;;;;;21.31;64.66;101529.16;15721845;28;20064;-62
2021/08/13 06:06:04;;;;;;;1999.90;999.90;;;;;;;22.50;61.53;101523.44;15722243;28;20032;-63
2021/08/13 06:13:36;;;;;;;1999.90;999.90;;;;;;;22.71;59.76;101526.41;15721833;28;20562;-63
2021/08/13 06:21:13;;;;;;;1999.90;999.90;;;;;;;23.27;58.86;101527.16;15704967;28;20624;-63
2021/08/13 06:28:46;;;;;;;1999.90;999.90;;;;;;;23.98;58.25;101535.09;15741145;28;20147;-62
2021/08/13 06:36:19;;;;;;;1999.90;999.90;;;;;;;24.42;57.96;101552.66;15766644;28;20040;-64
2021/08/13 06:43:52;;;;;;;1999.90;999.90;;;;;;;24.14;57.75;101542.00;15783674;28;20051;-62
2021/08/13 06:51:29;;;;;;;1999.90;999.90;;;;;;;24.36;57.45;101539.19;15783798;28;20048;-63
2021/08/13 06:59:03;;;;;;;1999.90;999.90;;;;;;;25.01;55.88;101540.69;15771398;28;20600;-62
2021/08/13 07:06:37;;;;;;;;;;;;;;;25.74;55.28;101540.00;15819069;28;20048;-64
2021/08/13 07:14:10;;;;;;;1999.90;999.90;;;;;;;26.28;53.16;101552.72;15834066;28;20026;-63
2021/08/13 07:21:46;;;;;;;1999.90;999.90;;;;;;;26.64;51.27;101552.41;15806774;28;20118;-62
2021/08/13 07:29:21;;;;;;;1999.90;999.90;;;;;;;27.15;51.33;101562.09;15770695;28;20045;-65
2021/08/13 07:36:55;;;;;;;1999.90;999.90;;;;;;;27.15;52.42;101560.06;15731101;28;20043;-63
2021/08/13 07:44:28;;;;;;;1999.90;999.90;;;;;;;27.98;50.24;101549.13;15755971;28;20119;-64
2021/08/13 07:52:08;;;;;;;1999.90;999.90;;;;;;;28.37;47.15;101557.13;15736842;28;20736;-64
2021/08/13 07:59:41;;;;;;;1999.90;999.90;;;;;;;28.67;47.85;101553.31;15751676;28;20072;-64
2021/08/13 08:07:16;;;;;;;1999.90;999.90;;;;;;;28.94;45.63;101550.34;15731799;28;20494;-65
2021/08/13 08:14:48;;;;;;;1999.90;999.90;;;;;;;29.31;44.21;101546.31;15747489;28;20047;-63
2021/08/13 08:22:22;;;;;;;1999.90;999.90;;;;;;;29.92;44.41;101559.38;15745872;28;20048;-63
2021/08/13 08:29:54;;;;;;;1999.90;999.90;;;;;;;30.33;43.94;101561.69;15774603;28;20040;-64
2021/08/13 08:37:27;;;;;;;1999.90;999.90;;;;;;;30.61;44.56;101574.50;15807418;28;20435;-64
2021/08/13 08:45:00;;;;;;;1999.90;999.90;;;;;;;30.37;41.38;101567.34;15790036;28;20044;-65
2021/08/13 08:52:34;;;;;;;1999.90;999.90;;;;;;;30.85;42.20;101575.16;15806435;28;20100;-64
2021/08/13 09:00:08;;;;;;;1999.90;999.90;;;;;;;31.52;41.61;101551.41;15806360;28;20048;-63
2021/08/13 09:07:41;;;;;;;1999.90;999.90;;;;;;;32.14;40.24;101557.72;15806111;28;20043;-63
2021/08/13 09:15:29;;;;;;;1999.90;999.90;;;;;;;31.67;40.20;101574.84;15805779;28;20090;-63
2021/08/13 09:23:02;;;;;;;1999.90;999.90;;;;;;;32.48;40.07;101565.66;15804429;28;20600;-63
2021/08/13 09:30:36;;;;;;;1999.90;999.90;;;;;;;32.59;39.95;101571.06;15762822;22;20059;-59
2021/08/13 09:38:13;;;;;;;1999.90;999.90;;;;;;;32.51;38.43;101561.84;15675465;28;20125;-60
2021/08/13 09:46:05;;;;;;;1999.90;999.90;;;;;;;33.64;38.33;101567.63;15661871;28;20095;-58
2021/08/13 09:53:56;;;;;;;1999.90;999.90;;;;;;;33.82;36.43;101546.66;15679861;28;20044;-60
2021/08/13 10:01:36;;;;;;;1999.90;999.90;;;;;;;33.87;37.07;101560.56;15678766;28;20421;-60
2021/08/13 10:09:23;;;;;;;1999.90;999.90;;;;;;;34.61;35.09;101561.59;15676841;28;20044;-60
2021/08/13 10:17:07;;;;;;;1999.90;999.90;;;;;;;35.08;33.94;101566.16;15661268;28;20063;-59
2021/08/13 10:24:43;;;;;;;1999.90;999.90;;;;;;;34.98;32.26;101566.16;15677502;28;20424;-60
2021/08/13 10:32:20;;;;;;;1999.90;999.90;;;;;;;34.61;34.10;101562.41;15675082;28;20103;-61
2021/08/13 10:39:56;;;;;;;1999.90;999.90;;;;;;;35.24;32.87;101560.84;15669593;28;20065;-61
2021/08/13 10:47:36;;;;;;;1999.90;999.90;;;;;;;35.30;33.79;101543.56;15669100;28;20037;-61
2021/08/13 10:55:41;;;;;;;1999.90;999.90;;;;;;;35.63;34.51;101546.56;15651989;28;20536;-61
2021/08/13 11:03:22;;;;;;;1999.90;999.90;;;;;;;36.66;32.40;101541.41;15650887;28;20049;-61
2021/08/13 11:10:58;;;;;;;1999.90;999.90;;;;;;;36.24;30.61;101526.16;15667600;28;20033;-61
2021/08/13 11:18:38;;;;;;;1999.90;999.90;;;;;;;35.49;30.24;101524.84;15668498;28;20103;-61
2021/08/13 11:26:59;;;;;;;1999.90;999.90;;;;;;;35.90;30.28;101518.78;15666855;28;20087;-61
2021/08/13 11:34:42;;;;;;;1999.90;999.90;;;;;;;36.59;28.48;101509.81;15619845;28;20049;-59
2021/08/13 11:42:22;;;;;;;1999.90;999.90;;;;;;;37.38;29.76;101506.38;15586065;28;20046;-59
2021/08/13 11:49:56;;;;;;;1999.90;999.90;;;;;;;36.92;28.09;101480.66;15601520;28;20099;-60
2021/08/13 11:57:31;;;;;;;1999.90;999.90;;;;;;;36.43;30.54;101478.28;15585202;28;20548;-59
2021/08/13 12:05:05;;;;;;;1999.90;999.90;;;;;;;36.15;28.83;101480.53;15602541;28;20048;-61
2021/08/13 12:12:43;;;;;;;1999.90;999.90;;;;;;;35.07;31.34;101489.16;15601587;28;20068;-59
2021/08/13 12:20:19;;;;;;;1999.90;999.90;;;;;;;34.51;33.21;101482.56;15601957;28;20124;-60
2021/08/13 12:27:52;;;;;;;1999.90;999.90;;;;;;;35.00;33.46;101476.56;15615420;28;20072;-60
2021/08/13 12:35:25;;;;;;;1999.90;999.90;;;;;;;34.38;34.32;101471.09;15671964;28;20041;-60
2021/08/13 12:43:00;;;;;;;1999.90;999.90;;;;;;;34.60;34.32;101464.34;15674392;28;20059;-60
2021/08/13 12:50:35;;;;;;;1999.90;999.90;;;;;;;32.88;37.37;101470.53;15673071;28;20115;-60
2021/08/13 12:58:10;;;;;;;1999.90;999.90;;;;;;;32.92;38.50;101473.28;15670865;28;20386;-60
2021/08/13 13:06:11;;;;;;;1999.90;999.90;;;;;;;34.13;36.42;101466.38;15671263;28;20057;-59
2021/08/13 13:13:48;;;;;;;1999.90;999.90;;;;;;;34.55;34.57;101470.78;15671257;28;20041;-60
2021/08/13 13:21:23;;;;;;;1999.90;999.90;;;;;;;33.80;35.19;101468.19;15669488;28;20045;-58
2021/08/13 13:29:08;;;;;;;1999.90;999.90;;;;;;;34.66;37.09;101465.31;15648774;28;20041;-60
2021/08/13 13:37:12;;;;;;;1999.90;999.90;;;;;;;35.16;33.56;101458.03;15605056;28;20107;-59
2021/08/13 13:44:46;;;;;;;1999.90;999.90;;;;;;;34.65;32.54;101444.22;15617674;28;20072;-59
2021/08/13 13:52:20;;;;;;;1999.90;999.90;;;;;;;33.83;36.09;101426.69;15629943;28;20514;-59
2021/08/13 13:59:54;;;;;;;1999.90;999.90;;;;;;;33.78;34.38;101439.72;15632963;28;20049;-58
2021/08/13 14:07:26;;;;;;;1999.90;999.90;;;;;;;33.30;33.56;101433.38;15613780;28;20060;-59
2021/08/13 14:15:02;;;;;;;1999.90;999.90;;;;;;;33.44;34.52;101428.31;15643696;28;20041;-59
2021/08/13 14:22:35;;;;;;;1999.90;999.90;;;;;;;32.91;34.28;101425.44;15659702;28;20045;-58
2021/08/13 14:30:12;;;;;;;1999.90;999.90;;;;;;;32.67;35.25;101417.22;15598829;28;20049;-59
2021/08/13 14:37:45;;;;;;;1999.90;999.90;;;;;;;33.04;37.71;101420.41;15599209;28;20045;-60
2021/08/13 14:45:19;;;;;;;1999.90;999.90;;;;;;;32.63;34.77;101419.44;15599933;28;20038;-60
2021/08/13 14:52:54;;;;;;;1999.90;999.90;;;;;;;32.52;36.31;101416.16;15596547;28;20065;-59
2021/08/13 15:00:31;;;;;;;1999.90;999.90;;;;;;;31.86;36.31;101410.19;15626777;28;20041;-58
2021/08/13 15:08:04;;;;;;;1999.90;999.90;;;;;;;31.91;36.49;101405.94;15656619;28;20069;-59
2021/08/13 15:15:38;;;;;;;1999.90;999.90;;;;;;;32.05;38.47;101411.19;15657330;28;20041;-60
2021/08/13 15:23:11;;;;;;;1999.90;999.90;;;;;;;31.97;39.26;101409.03;15667069;28;20072;-59
2021/08/13 15:30:44;;;;;;;1999.90;999.90;;;;;;;32.27;39.22;101401.78;15707943;22;20584;-65
2021/08/13 15:38:16;;;;;;;1999.90;999.90;;;;;;;31.78;38.84;101396.47;15663624;28;20127;-64
2021/08/13 15:45:51;;;;;;;1999.90;999.90;;;;;;;32.11;39.02;101394.09;15679629;28;20048;-62
2021/08/13 15:53:23;;;;;;;1999.90;999.90;;;;;;;32.01;39.83;101375.91;15697579;28;20045;-64
2021/08/13 16:00:57;;;;;;;1999.90;999.90;;;;;;;31.80;38.99;101388.19;15700366;28;20068;-65
2021/08/13 16:08:30;;;;;;;1999.90;999.90;;;;;;;31.70;39.53;101380.66;15682074;28;20110;-64
2021/08/13 16:16:07;;;;;;;1999.90;999.90;;;;;;;31.39;38.91;101384.16;15684921;28;20492;-64
2021/08/13 16:23:43;;;;;;;1999.90;999.90;;;;;;;31.41;40.08;101377.94;15684720;28;20135;-64
2021/08/13 16:31:17;;;;;;;1999.90;999.90;;;;;;;31.43;38.94;101370.41;15672694;28;20409;-66
2021/08/13 16:38:52;;;;;;;1999.90;999.90;;;;;;;31.22;39.97;101357.50;15688257;28;20044;-62
2021/08/13 16:46:27;;;;;;;1999.90;999.90;;;;;;;31.07;45.92;101359.22;15687824;28;20041;-65
2021/08/13 16:54:02;;;;;;;1999.90;999.90;;;;;;;31.03;41.04;101370.84;15686006;28;20053;-67
2021/08/13 17:01:36;;;;;;;1999.90;999.90;;;;;;;30.81;45.74;101366.19;15643849;28;20055;-65
2021/08/13 17:09:08;;;;;;;1999.90;999.90;;;;;;;30.63;46.23;101350.22;15635704;28;20557;-68
2021/08/13 17:16:41;;;;;;;1999.90;999.90;;;;;;;30.48;47.65;101351.91;15627076;28;20124;-67
2021/08/13 17:24:13;;;;;;;1999.90;999.90;;;;;;;30.25;48.08;101337.81;15612072;28;20045;-64
2021/08/13 17:31:50;;;;;;;1999.90;999.90;;;;;;;30.01;49.22;101326.47;15627486;28;20054;-64
2021/08/13 17:39:22;;;;;;;1999.90;999.90;;;;;;;29.89;48.10;101315.72;15607447;28;20375;-63
2021/08/13 17:46:56;;;;;;;1999.90;999.90;;;;;;;29.89;43.03;101322.28;15615873;28;20060;-65
2021/08/13 17:54:30;;;;;;;1999.90;999.90;;;;;;;29.82;49.30;101325.38;15627243;28;20050;-64
2021/08/13 18:02:05;;;;;;;1999.90;999.90;;;;;;;29.54;49.61;101324.03;15670084;28;20087;-64
2021/08/13 18:09:40;;;;;;;1999.90;999.90;;;;;;;29.31;50.31;101330.75;15672849;28;20044;-65
2021/08/13 18:17:13;;;;;;;1999.90;999.90;;;;;;;29.00;51.35;101318.78;15683335;28;20041;-64
2021/08/13 18:24:49;;;;;;;1999.90;999.90;;;;;;;28.72;53.20;101322.25;15687731;28;20073;-63
2021/08/13 18:32:23;;;;;;;1999.90;999.90;;;;;;;28.56;53.73;101322.22;15691924;28;20040;-65
2021/08/13 18:39:55;;;;;;;1999.90;999.90;;;;;;;28.54;50.74;101324.72;15680032;28;20048;-64
2021/08/13 18:47:29;;;;;;;1999.90;999.90;;;;;;;28.30;51.69;101330.53;15688804;28;20037;-62
2021/08/13 18:55:01;;;;;;;1999.90;999.90;;;;;;;28.00;55.69;101331.50;15663907;28;20049;-64
2021/08/13 19:02:35;;;;;;;1999.90;999.90;;;;;;;27.76;56.81;101327.06;15658108;28;20075;-64
2021/08/13 19:10:09;;;;;;;1999.90;999.90;;;;;;;27.59;58.16;101320.34;15672477;28;20547;-63
2021/08/13 19:17:43;;;;;;;1999.90;999.90;;;;;;;27.47;57.92;101329.56;15640323;28;20052;-63
2021/08/13 19:25:16;;;;;;;1999.90;999.90;;;;;;;27.48;59.22;101328.31;15653762;28;20041;-64
2021/08/13 19:32:52;;;;;;;1999.90;999.90;;;;;;;27.38;58.25;101347.31;15682629;28;20064;-64
2021/08/13 19:40:25;;;;;;;1999.90;999.90;;;;;;;27.38;60.18;101366.56;15701733;28;20041;-64
2021/08/13 19:47:58;;;;;;;1999.90;999.90;;;;;;;27.37;57.81;101399.31;15695165;28;20107;-64
2021/08/13 19:55:30;;;;;;;1999.90;999.90;;;;;;;27.25;54.39;101403.59;15694619;28;20144;-62
2021/08/13 20:03:05;;;;;;;1999.90;999.90;;;;;;;27.27;55.13;101390.44;15634087;28;20045;-63
2021/08/13 20:10:37;;;;;;;1999.90;999.90;;;;;;;27.24;55.07;101393.38;15631874;28;20037;-63
2021/08/13 20:18:10;;;;;;;1999.90;999.90;;;;;;;27.20;55.45;101393.44;15634085;28;20717;-63
2021/08/13 20:25:43;;;;;;;1999.90;999.90;;;;;;;27.16;56.30;101389.81;15614832;28;20057;-63
2021/08/13 20:33:16;;;;;;;;;;;;;;;27.20;56.00;101386.88;15613724;28;20479;-63
2021/08/13 20:40:48;;;;;;;1999.90;999.90;;;;;;;27.05;55.42;101397.75;15629345;28;19968;-64
2021/08/13 20:48:22;;;;;;;;;;;;;;;27.08;56.03;101402.59;15638550;28;20120;-63
2021/08/13 20:55:54;;;;;;;1999.90;999.90;;;;;;;26.98;55.79;101384.28;15637543;28;19921;-64
2021/08/13 21:03:28;;;;;;;;;;;;;;;26.91;56.31;101390.13;15625284;28;20534;-66
2021/08/13 21:11:04;;;;;;;1999.90;999.90;;;;;;;26.63;55.58;101401.94;15627180;28;19925;-63
2021/08/13 21:18:38;;;;;;;1999.90;999.90;;;;;;;26.71;55.07;101414.94;15611895;28;20059;-63
2021/08/13 21:26:13;;;;;;;1999.90;999.90;;;;;;;26.56;54.64;101424.91;15632277;28;20103;-64
2021/08/13 21:33:47;;;;;;;1999.90;999.90;;;;;;;26.55;55.32;101435.56;15603274;28;20532;-60
2021/08/13 21:41:19;;;;;;;1999.90;999.90;;;;;;;26.60;54.85;101437.97;15618327;28;20055;-60
2021/08/13 21:48:53;;;;;;;1999.90;999.90;;;;;;;26.29;55.59;101447.66;15663713;28;20045;-62
2021/08/13 21:56:25;;;;;;;1999.90;999.90;;;;;;;26.17;56.03;101454.75;15679359;28;20041;-60
2021/08/13 22:03:59;;;;;;;1999.90;999.90;;;;;;;26.18;55.98;101467.81;15679902;28;20044;-64
2021/08/13 22:11:32;;;;;;;1999.90;999.90;;;;;;;26.25;55.72;101469.75;15679139;28;20048;-63
2021/08/13 22:19:08;;;;;;;1999.90;999.90;;;;;;;26.04;55.95;101480.16;15678651;28;20064;-60
2021/08/13 22:26:41;;;;;;;1999.90;999.90;;;;;;;25.90;55.85;101489.66;15659348;28;20099;-64
2021/08/13 22:34:15;;;;;;;;;;;;;;;25.76;56.55;101492.66;15677707;28;20095;-63
2021/08/13 22:41:53;;;;;;;1999.90;999.90;;;;;;;25.54;56.69;101485.41;15677310;28;19921;-63
2021/08/13 22:49:29;;;;;;;1999.90;999.90;;;;;;;25.41;57.04;101493.63;15677192;28;20075;-62
2021/08/13 22:57:06;;;;;;;1999.90;999.90;;;;;;;24.99;58.31;101492.59;15676761;28;20041;-63
2021/08/13 23:04:39;;;;;;;1999.90;999.90;;;;;;;24.76;59.37;101515.91;15667062;28;20043;-60
2021/08/13 23:12:12;;;;;;;1999.90;999.90;;;;;;;24.52;59.05;101513.13;15676857;28;20041;-62
2021/08/13 23:19:46;;;;;;;1999.90;999.90;;;;;;;24.51;59.64;101517.19;15665552;28;20064;-62
2021/08/13 23:27:18;;;;;;;1999.90;999.90;;;;;;;24.49;59.08;101517.59;15623846;28;20049;-60
2021/08/13 23:34:55;;;;;;;1999.90;999.90;;;;;;;24.32;59.28;101526.97;15654566;28;20049;-60
2021/08/13 23:42:27;;;;;;;1999.90;999.90;;;;;;;24.17;59.28;101528.97;15648363;28;20052;-60
2021/08/13 23:50:01;;;;;;;1999.90;999.90;;;;;;;24.14;59.66;101542.00;15624787;28;20041;-59
2021/08/13 23:57:34;;;;;;;1999.90;999.90;;;;;;;23.52;57.82;101556.53;15640668;28;20128;-62
